Accueil
METAR-TAF:

METAR-TAF

Aéroports :

Liège, Belgique

Aéroport de Liège

latitude: 50-39N, longitude: 005-27E, altitude: 186 m

Observation

Le bulletin a été fait il y a 11 minutes, à 00:20 UTC
Vent 10 kt de est/nord-est
Température -3°C
Humidité 50%
Pression 1019 hPa
Visibilité 10 km ou plus
pas de nuages en-dessous de 1500 mètres et pas de cumulonimbus.

METAR: EBLG 240020Z 06010KT CAVOK M03/M12 Q1019 NOSIG

Heure: 01:31 (00:31 UTC)

Prévision

Le bulletin a été fait il y a 1 heure et 31 minutes, à 23:00 UTC
Prévision valable du 24 à 00 UTC au 25 à 06 UTC
Vent 9 kt de est/nord-est
Visibilité 10 km ou plus
pas de nuages en-dessous de 1500 mètres et pas de cumulonimbus.
Probabilité 30% :
Temporairement
du 24 à 11 UTC au 24 à 16 UTC
Vent 15 kt de est/nord-est avec des rafales jusqu'à 25 kt

TAF: EBLG 232300Z 2400/2506 06009KT CAVOK PROB30 TEMPO 2411/2416 07015G25KT

Observations et prévisions météorologiques de plus de 4000 aéroports (messages METAR et TAF).

Les stations disponibles sont représentées par des disques jaunes et rouges sur la carte.

Passer la souris dessus pour voir le nom de la station.

Cliquer dessus pour voir les observations et prévisions météorologiques.

Pour changer de carte: cliquez sur les boutons verts avec une croix noire pour zoomer, sur le bouton vert avec un tiret pour effectuer un zoom arrière, ou sur les flèches vertes pour les cartes adjacentes.


METAR-TAF: